Natalia, TX

8:56 PM CDT on August 20, 2014 (GMT -0500)
Stinson Municipal | Change Station
CLOSE
Current Station
Airport
Location: San Antonio Stinson,
Elevation: 574 ft
Nearby Weather Stations

Elev 574 ft 29.34 °N, 98.47 °W | Updated 1 hour ago

Clear
Clear
91 °F
Feels Like 97 °F
N
15
Wind Variable Wind from SE
Gusts 22 mph

Today
High -- | Low -- °F
--% Chance of Precip.
Yesterday
High -- | Low -- °F
Precip. -- in
7:06 AM 8:10 PM
Waning Crescent, 17% visible
Pressure 29.84 in
Visibility 10.0 miles
Clouds Clear
Heat Index 97 °F
Dew Point 70 °F
Humidity 50%
Rainfall 0.00 in
Snow Depth Not available.
UV 0 out of 12
Pollen 7.80 out of 12
Ozone Good
PM2.5 Moderate
Flu Activity Not available.
METAR KSSF 210053Z 13013G19KT 10SM CLR 33/21 A2987 RMK AO2 SLP103 T03280211

More Conditions Fewer Conditions

Pressure 29.84 in
Visibility 10.0 miles
Clouds Clear
Heat Index 97 °F
Dew Point 70 °F
Humidity 50%
Rainfall 0.00 in
Snow Depth Not available.
UV 0 out of 12
Pollen 7.80 out of 12
Ozone Good
PM2.5 Moderate
Flu Activity Not available.
METAR KSSF 210053Z 13013G19KT 10SM CLR 33/21 A2987 RMK AO2 SLP103 T03280211

More Conditions Fewer Conditions

Nowcast | as of 8:46 PM CDT on August 20, 2014

Through 11 PM...isolated showers and thunderstorms will move north across portions of the Central Hill country and the Rio Grande plains. Rainfall amounts will be light with most locations receiving one tenth of an inch or less. In the stronger storms rainfall amounts could reach one quarter inch. The showers should dissipate by midnight.

×

10-Day Weather Forecast

Almanac

Astronomy

Aug. 20, 2014 Rise Set
Actual Time 7:06 AM CDT 8:10 PM CDT
Civil Twilight 6:42 AM CDT 8:34 PM CDT
Nautical Twilight 6:12 AM CDT 9:04 PM CDT
Astronomical Twilight 5:42 AM CDT 9:34 PM CDT
Moon 2:56 AM CDT (8/20) 4:48 PM CDT (8/20)
Length of Visible Light 13h 52m
Length of Day
13h 03m
Tomorrow will be 1m 35s shorter.
Waning Crescent, 17% of the Moon is Illuminated
Today
Waning Crescent
Aug 25
New
Sep 2
First Quarter
Sep 8
Full
Sep 15
Last Quarter

Today's Extremes

State Highs State Lows

Community

WunderPhotos

Upload Photos

1,745,859 photos uploaded!

WunderBlogs® & News

Nearby

Air Quality

  Air Quality AQ Index Pollutant
Yesterday Moderate
PM2.5
Yesterday Good
OZONE
Current Moderate
PM2.5
Current Good
OZONE
Wednesday Good
PM10
Wednesday Good
OZONE
Thursday Good
PM10
Thursday Good
OZONE
Friday Good
PM10
Friday Good
OZONE
Saturday Good
PM10
Saturday Good
OZONE

Snow Depth

Station Depth Elevation
No new snow has been reported.

Earthquake Activity

City Distance Mag. Time & Date
No recent earthquake activity has been reported nearby.
Minimum magnitude displayed is 2.5.

Coastal Water Temperatures

Place Temperature
No Stations Reporting

Nearby Weather Stations